createdAt,value
2019-03-18T00:00:59.904Z,6.44
2019-03-18T00:03:31.063Z,6.41
2019-03-18T00:06:02.063Z,6.40
2019-03-18T00:08:33.140Z,6.46
2019-03-18T00:11:05.350Z,6.47
2019-03-18T00:13:36.412Z,6.45
2019-03-18T00:16:07.463Z,6.51
2019-03-18T00:18:39.309Z,6.49
2019-03-18T00:21:10.335Z,6.46
2019-03-18T00:23:41.119Z,6.47
2019-03-18T00:26:16.138Z,6.45
2019-03-18T00:28:47.464Z,6.44
2019-03-18T00:31:18.266Z,6.42
2019-03-18T00:33:49.509Z,6.42
2019-03-18T00:36:20.184Z,6.38
2019-03-18T00:38:51.200Z,6.36
2019-03-18T00:41:22.323Z,6.35
2019-03-18T00:43:53.192Z,6.36
2019-03-18T00:46:24.043Z,6.35
2019-03-18T00:48:55.019Z,6.33
2019-03-18T00:51:25.941Z,6.30
2019-03-18T00:53:57.121Z,6.31
2019-03-18T00:56:28.292Z,6.27
2019-03-18T00:58:59.846Z,6.28
2019-03-18T01:01:30.710Z,6.32
2019-03-18T01:04:01.672Z,6.30
2019-03-18T01:06:33.225Z,6.32
2019-03-18T01:09:06.101Z,6.34
2019-03-18T01:11:37.083Z,6.35
2019-03-18T01:14:07.972Z,6.40
2019-03-18T01:16:40.340Z,6.28
2019-03-18T01:19:11.121Z,6.28
2019-03-18T01:21:42.069Z,6.28
2019-03-18T01:24:12.892Z,6.27
2019-03-18T01:26:43.775Z,6.29
2019-03-18T01:29:17.366Z,6.29
2019-03-18T01:31:48.843Z,6.29
2019-03-18T01:34:19.905Z,6.24
2019-03-18T01:36:51.478Z,6.18
2019-03-18T01:39:22.474Z,6.15
2019-03-18T01:41:53.349Z,6.13
2019-03-18T01:44:24.381Z,6.13
2019-03-18T01:46:56.659Z,6.12
2019-03-18T01:49:27.670Z,6.08
2019-03-18T01:51:58.841Z,6.07
2019-03-18T01:54:29.949Z,6.05
2019-03-18T01:57:01.537Z,6.05
2019-03-18T01:59:32.340Z,6.09
2019-03-18T02:02:03.717Z,6.07
2019-03-18T02:04:35.464Z,6.08
2019-03-18T02:07:06.580Z,6.05
2019-03-18T02:09:37.412Z,6.09
2019-03-18T02:12:09.954Z,6.09
2019-03-18T02:14:40.872Z,6.05
2019-03-18T02:17:11.943Z,6.05
2019-03-18T02:19:42.711Z,6.01
2019-03-18T02:22:13.711Z,5.99
2019-03-18T02:24:44.705Z,6.03
2019-03-18T02:27:18.015Z,6.00
2019-03-18T02:29:48.466Z,6.00
2019-03-18T02:32:19.486Z,6.02
2019-03-18T02:34:50.785Z,6.02
2019-03-18T02:37:22.009Z,6.02
2019-03-18T02:39:53.000Z,6.01
2019-03-18T02:42:23.963Z,6.07
2019-03-18T02:44:55.413Z,6.00
2019-03-18T02:47:26.792Z,5.99
2019-03-18T02:49:58.549Z,5.92
2019-03-18T02:52:29.394Z,5.93
2019-03-18T02:55:01.593Z,5.93
2019-03-18T02:57:32.282Z,5.88
2019-03-18T03:00:02.525Z,5.83
2019-03-18T03:02:32.331Z,5.88
2019-03-18T03:05:02.428Z,5.86
2019-03-18T03:07:32.472Z,5.85
2019-03-18T03:10:02.674Z,5.81
2019-03-18T03:12:32.746Z,5.82
2019-03-18T03:15:02.804Z,5.78
2019-03-18T03:17:32.827Z,5.77
2019-03-18T03:20:05.355Z,5.79
2019-03-18T03:22:36.042Z,5.69
2019-03-18T03:25:07.639Z,5.68
2019-03-18T03:27:37.606Z,5.69
2019-03-18T03:30:09.371Z,5.72
2019-03-18T03:32:39.385Z,5.69
2019-03-18T03:35:11.283Z,5.69
2019-03-18T03:37:41.341Z,5.65
2019-03-18T03:40:12.954Z,5.67
2019-03-18T03:42:44.036Z,5.65
2019-03-18T03:45:15.703Z,5.67
2019-03-18T03:47:46.844Z,5.57
2019-03-18T03:50:18.262Z,5.64
2019-03-18T03:52:49.394Z,5.58
2019-03-18T03:55:20.338Z,5.55
2019-03-18T03:57:51.314Z,5.50
2019-03-18T04:00:22.561Z,5.49
2019-03-18T04:02:53.722Z,5.48
2019-03-18T04:05:24.990Z,5.49
2019-03-18T04:07:55.925Z,5.47
2019-03-18T04:10:26.960Z,5.43
2019-03-18T04:12:57.756Z,5.50
2019-03-18T04:15:29.041Z,5.40
2019-03-18T04:17:59.893Z,5.43
2019-03-18T04:20:30.894Z,5.37
2019-03-18T04:23:01.610Z,5.33
2019-03-18T04:25:33.329Z,5.30
2019-03-18T04:28:04.968Z,5.37
2019-03-18T04:30:35.930Z,5.30
2019-03-18T04:33:06.762Z,5.25
2019-03-18T04:35:37.722Z,5.28
2019-03-18T04:38:08.723Z,5.27
2019-03-18T04:40:39.523Z,5.25
2019-03-18T04:43:10.559Z,5.25
2019-03-18T04:45:42.285Z,5.26
2019-03-18T04:48:13.345Z,5.23
2019-03-18T04:50:43.987Z,5.15
2019-03-18T04:53:15.146Z,5.14
2019-03-18T04:55:46.317Z,5.14
2019-03-18T04:58:17.263Z,5.14
2019-03-18T05:00:48.215Z,5.12
2019-03-18T05:03:19.160Z,5.05
2019-03-18T05:05:50.713Z,5.06
2019-03-18T05:08:21.624Z,5.09
2019-03-18T05:10:52.830Z,5.02
2019-03-18T05:13:26.390Z,5.03
2019-03-18T05:15:56.170Z,5.04
2019-03-18T05:18:26.831Z,5.06
2019-03-18T05:20:57.675Z,5.07
2019-03-18T05:23:30.181Z,5.07
2019-03-18T05:26:00.770Z,5.06
2019-03-18T05:28:31.530Z,5.09
2019-03-18T05:31:02.612Z,5.11
2019-03-18T05:33:33.768Z,5.06
2019-03-18T05:36:04.802Z,5.08
2019-03-18T05:38:35.598Z,5.14
2019-03-18T05:41:06.588Z,5.17
2019-03-18T05:43:37.446Z,5.20
2019-03-18T05:46:09.117Z,5.25
2019-03-18T05:48:40.100Z,5.30
2019-03-18T05:51:10.813Z,5.35
2019-03-18T05:53:41.614Z,5.34
2019-03-18T05:56:12.831Z,5.42
2019-03-18T05:58:43.745Z,5.46
2019-03-18T06:01:14.693Z,5.53
2019-03-18T06:03:45.869Z,5.52
2019-03-18T06:06:16.764Z,5.55
2019-03-18T06:08:47.467Z,5.56
2019-03-18T06:11:18.236Z,5.59
2019-03-18T06:13:49.300Z,5.59
2019-03-18T06:16:21.907Z,5.61
2019-03-18T06:18:54.235Z,5.66
2019-03-18T06:21:33.359Z,5.70
2019-03-18T06:24:26.521Z,5.72
2019-03-18T06:29:40.990Z,5.83
2019-03-18T06:32:11.614Z,5.88
2019-03-18T06:34:42.704Z,5.93
2019-03-18T06:37:14.287Z,6.03
2019-03-18T06:39:45.599Z,6.05
2019-03-18T06:42:18.665Z,6.04
2019-03-18T06:44:49.262Z,6.01
2019-03-18T06:47:20.617Z,6.03
2019-03-18T06:49:51.459Z,6.07
2019-03-18T06:52:22.352Z,6.06
2019-03-18T06:54:53.573Z,6.14
2019-03-18T06:57:25.408Z,6.26
2019-03-18T06:59:56.369Z,6.28
2019-03-18T07:02:27.572Z,6.29
2019-03-18T07:04:59.360Z,6.34
2019-03-18T07:07:30.571Z,6.36
2019-03-18T07:10:01.876Z,6.47
2019-03-18T07:12:32.998Z,6.47
2019-03-18T07:15:04.916Z,6.48
2019-03-18T07:17:36.500Z,6.39
2019-03-18T07:20:11.274Z,6.35
2019-03-18T07:22:42.074Z,6.47
2019-03-18T07:25:13.378Z,6.41
2019-03-18T07:27:45.457Z,6.49
2019-03-18T07:30:16.912Z,6.49
2019-03-18T07:32:47.736Z,6.51
2019-03-18T07:35:19.020Z,6.54
2019-03-18T07:37:50.691Z,6.45
2019-03-18T07:40:22.049Z,6.37
2019-03-18T07:42:53.608Z,6.36
2019-03-18T07:45:24.657Z,6.36
2019-03-18T07:47:56.510Z,6.48
2019-03-18T07:50:27.611Z,6.37
2019-03-18T07:52:59.065Z,6.45
2019-03-18T07:55:30.406Z,6.47
2019-03-18T07:58:01.568Z,6.50
2019-03-18T08:00:32.717Z,6.41
2019-03-18T08:03:03.779Z,6.30
2019-03-18T08:05:34.866Z,6.28
2019-03-18T08:08:05.602Z,6.32
2019-03-18T08:10:36.907Z,6.34
2019-03-18T08:13:07.845Z,6.47
2019-03-18T08:15:39.491Z,6.60
2019-03-18T08:18:11.846Z,6.62
2019-03-18T08:20:42.887Z,6.66
2019-03-18T08:23:13.851Z,6.62
2019-03-18T08:25:44.781Z,6.63
2019-03-18T08:28:15.744Z,6.60
2019-03-18T08:30:47.312Z,6.61
2019-03-18T08:33:18.367Z,6.56
2019-03-18T08:35:49.701Z,6.66
2019-03-18T08:38:21.021Z,6.63
2019-03-18T08:40:53.375Z,6.58
2019-03-18T08:43:24.170Z,6.45
2019-03-18T08:45:56.209Z,6.50
2019-03-18T08:48:27.358Z,6.68
2019-03-18T08:50:58.744Z,6.82
2019-03-18T08:53:30.036Z,6.90
2019-03-18T08:56:01.196Z,6.95
2019-03-18T08:58:32.249Z,6.94
2019-03-18T09:01:03.706Z,7.00
2019-03-18T09:03:35.211Z,7.02
2019-03-18T09:06:06.192Z,7.08
2019-03-18T09:08:37.912Z,7.14
2019-03-18T09:11:09.503Z,7.02
2019-03-18T09:13:40.762Z,6.97
2019-03-18T09:16:13.214Z,6.88
2019-03-18T09:18:44.411Z,6.80
2019-03-18T09:21:16.437Z,6.67
2019-03-18T09:23:48.138Z,6.65
2019-03-18T09:26:19.129Z,6.67
2019-03-18T09:28:49.992Z,6.66
2019-03-18T09:31:21.290Z,6.67
2019-03-18T09:33:52.874Z,6.76
2019-03-18T09:36:24.415Z,6.82
2019-03-18T09:38:55.472Z,6.92
2019-03-18T09:41:26.511Z,7.07
2019-03-18T09:43:58.409Z,7.12
2019-03-18T09:46:29.184Z,7.15
2019-03-18T09:49:00.602Z,7.10
2019-03-18T09:51:32.690Z,7.04
2019-03-18T09:54:04.327Z,7.03
2019-03-18T09:56:36.170Z,6.98
2019-03-18T09:59:09.886Z,7.01
2019-03-18T10:01:41.306Z,7.06
2019-03-18T10:04:12.701Z,7.16
2019-03-18T10:06:43.970Z,7.25
2019-03-18T10:09:14.812Z,7.40
2019-03-18T10:11:45.885Z,7.60
2019-03-18T10:14:19.548Z,7.55
2019-03-18T10:16:49.614Z,7.44
2019-03-18T10:19:20.377Z,7.55
2019-03-18T10:21:51.262Z,7.54
2019-03-18T10:24:23.124Z,7.56
2019-03-18T10:26:55.498Z,7.65
2019-03-18T10:29:26.711Z,7.50
2019-03-18T10:31:58.475Z,7.62
2019-03-18T10:34:29.549Z,7.39
2019-03-18T10:37:01.006Z,7.43
2019-03-18T10:39:32.154Z,7.28
2019-03-18T10:42:03.387Z,7.31
2019-03-18T10:44:35.808Z,7.30
2019-03-18T10:47:06.777Z,7.23
2019-03-18T10:49:46.506Z,7.24
2019-03-18T10:52:13.740Z,7.22
2019-03-18T10:54:44.351Z,7.18
2019-03-18T10:57:15.343Z,7.26
2019-03-18T10:59:46.884Z,7.37
2019-03-18T11:02:18.183Z,7.43
2019-03-18T11:04:49.132Z,7.44
2019-03-18T11:07:20.343Z,7.57
2019-03-18T11:09:51.510Z,7.61
2019-03-18T11:12:22.806Z,7.64
2019-03-18T11:14:54.151Z,7.70
2019-03-18T11:17:25.115Z,7.88
2019-03-18T11:19:58.670Z,8.16
2019-03-18T11:22:29.368Z,8.22
2019-03-18T11:25:00.552Z,8.33
2019-03-18T11:27:31.542Z,8.29
2019-03-18T11:30:02.667Z,8.25
2019-03-18T11:32:34.042Z,8.09
2019-03-18T11:35:04.971Z,8.04
2019-03-18T11:43:23.576Z,8.00
2019-03-18T11:45:55.399Z,7.93
2019-03-18T11:48:26.569Z,7.95
2019-03-18T11:50:57.921Z,8.09
2019-03-18T11:53:29.125Z,8.19
2019-03-18T11:56:00.176Z,8.30
2019-03-18T11:58:31.720Z,8.30
2019-03-18T12:01:02.786Z,8.30
2019-03-18T12:03:34.158Z,8.40
2019-03-18T12:06:05.793Z,8.40
2019-03-18T12:08:38.541Z,8.28
2019-03-18T12:11:09.426Z,8.19
2019-03-18T12:13:40.630Z,8.24
2019-03-18T12:16:12.167Z,8.34
2019-03-18T12:18:43.338Z,8.33
2019-03-18T12:21:16.094Z,8.45
2019-03-18T12:23:47.502Z,8.45
2019-03-18T12:26:19.020Z,8.42
2019-03-18T12:28:50.817Z,8.34
2019-03-18T12:31:22.278Z,8.31
2019-03-18T12:33:53.714Z,8.34
2019-03-18T12:36:24.980Z,8.35
2019-03-18T12:38:56.001Z,8.42
2019-03-18T12:41:27.334Z,8.45
2019-03-18T12:43:59.157Z,8.47
2019-03-18T12:46:30.544Z,8.42
2019-03-18T12:49:01.895Z,8.55
2019-03-18T12:51:33.882Z,8.59
2019-03-18T12:54:06.533Z,8.52
2019-03-18T12:56:37.743Z,8.47
2019-03-18T12:59:08.646Z,8.57
2019-03-18T13:01:39.632Z,8.83
2019-03-18T13:04:10.664Z,8.88
2019-03-18T13:06:42.042Z,8.78
2019-03-18T13:09:13.350Z,8.78
2019-03-18T13:11:45.071Z,8.68
2019-03-18T13:14:16.879Z,8.67
2019-03-18T13:16:48.039Z,8.64
2019-03-18T13:19:19.068Z,8.72
2019-03-18T13:21:50.080Z,8.79
2019-03-18T13:24:21.900Z,8.74
2019-03-18T13:26:53.496Z,8.58
2019-03-18T13:29:25.134Z,8.54
2019-03-18T13:31:56.140Z,8.47
2019-03-18T13:34:28.129Z,8.37
2019-03-18T13:37:00.110Z,8.37
2019-03-18T13:39:31.163Z,8.32
2019-03-18T13:42:02.048Z,8.32
2019-03-18T13:44:33.441Z,8.22
2019-03-18T13:47:04.248Z,8.20
2019-03-18T13:49:35.363Z,8.25
2019-03-18T13:52:06.691Z,8.24
2019-03-18T13:54:38.871Z,8.24
2019-03-18T13:57:11.490Z,8.15
2019-03-18T13:59:42.991Z,8.21
2019-03-18T14:02:17.297Z,8.23
2019-03-18T14:04:50.556Z,8.31
2019-03-18T14:07:22.495Z,8.23
2019-03-18T14:09:54.168Z,8.22
2019-03-18T14:12:25.410Z,8.32
2019-03-18T14:14:56.448Z,8.44
2019-03-18T14:17:27.461Z,8.42
2019-03-18T14:20:00.622Z,8.37
2019-03-18T14:22:31.258Z,8.49
2019-03-18T14:25:02.388Z,8.56
2019-03-18T14:27:33.249Z,8.61
2019-03-18T14:30:07.192Z,8.64
2019-03-18T14:32:38.035Z,8.72
2019-03-18T14:35:09.976Z,8.67
2019-03-18T14:37:41.183Z,8.63
2019-03-18T14:40:14.633Z,8.58
2019-03-18T14:42:46.823Z,8.56
2019-03-18T14:45:20.894Z,8.58
2019-03-18T14:47:52.455Z,8.63
2019-03-18T14:50:23.589Z,8.68
2019-03-18T14:52:54.366Z,8.63
2019-03-18T14:55:25.336Z,8.63
2019-03-18T14:57:56.879Z,8.75
2019-03-18T15:00:29.312Z,8.67
2019-03-18T15:03:00.441Z,8.54
2019-03-18T15:05:31.476Z,8.47
2019-03-18T15:08:02.833Z,8.44
2019-03-18T15:10:35.426Z,8.64
2019-03-18T15:13:06.706Z,8.78
2019-03-18T15:15:37.972Z,8.80
2019-03-18T15:18:10.026Z,8.87
2019-03-18T15:20:41.599Z,8.93
2019-03-18T15:23:13.037Z,8.94
2019-03-18T15:25:46.035Z,9.07
2019-03-18T15:28:16.993Z,9.25
2019-03-18T15:30:48.430Z,9.35
2019-03-18T15:33:19.579Z,9.27
2019-03-18T15:35:51.166Z,9.05
2019-03-18T15:38:22.417Z,8.99
2019-03-18T15:40:53.327Z,9.07
2019-03-18T15:43:24.885Z,9.13
2019-03-18T15:45:56.054Z,9.19
2019-03-18T15:48:26.829Z,9.10
2019-03-18T15:50:58.004Z,9.09
2019-03-18T15:53:29.379Z,9.12
2019-03-18T15:56:01.199Z,9.17
2019-03-18T15:58:32.737Z,9.06
2019-03-18T16:01:04.847Z,9.07
2019-03-18T16:03:37.737Z,9.05
2019-03-18T16:06:09.273Z,8.92
2019-03-18T16:08:41.206Z,8.75
2019-03-18T16:11:12.679Z,8.55
2019-03-18T16:13:43.939Z,8.47
2019-03-18T16:16:15.486Z,8.41
2019-03-18T16:18:46.649Z,8.38
2019-03-18T16:21:18.024Z,8.32
2019-03-18T16:23:48.926Z,8.32
2019-03-18T16:26:21.819Z,8.32
2019-03-18T16:28:53.495Z,8.30
2019-03-18T16:31:24.837Z,8.35
2019-03-18T16:33:55.701Z,8.40
2019-03-18T16:36:27.096Z,8.31
2019-03-18T16:38:58.578Z,8.27
2019-03-18T16:41:29.784Z,8.28
2019-03-18T16:44:00.883Z,8.17
2019-03-18T16:46:33.298Z,8.14
2019-03-18T16:49:04.745Z,8.13
2019-03-18T16:51:36.453Z,8.16
2019-03-18T16:54:08.186Z,8.17
2019-03-18T16:56:39.311Z,8.09
2019-03-18T16:59:10.836Z,7.99
2019-03-18T17:01:42.070Z,7.88
2019-03-18T17:04:13.368Z,7.89
2019-03-18T17:06:44.804Z,7.76
2019-03-18T17:09:16.243Z,7.77
2019-03-18T17:11:47.261Z,7.72
2019-03-18T17:14:18.838Z,7.70
2019-03-18T17:16:50.341Z,7.66
2019-03-18T17:19:21.672Z,7.71
2019-03-18T17:21:53.166Z,7.66
2019-03-18T17:24:24.748Z,7.71
2019-03-18T17:26:57.440Z,7.67
2019-03-18T17:29:28.701Z,7.56
2019-03-18T17:32:00.122Z,7.52
2019-03-18T17:34:31.097Z,7.44
2019-03-18T17:37:02.047Z,7.37
2019-03-18T17:39:33.719Z,7.32
2019-03-18T17:42:04.736Z,7.32
2019-03-18T17:44:36.450Z,7.34
2019-03-18T17:47:07.996Z,7.37
2019-03-18T17:49:38.998Z,7.43
2019-03-18T17:52:10.233Z,7.38
2019-03-18T17:54:41.090Z,7.42
2019-03-18T17:57:11.903Z,7.45
2019-03-18T17:59:43.116Z,7.44
2019-03-18T18:02:14.577Z,7.43
2019-03-18T18:04:46.111Z,7.47
2019-03-18T18:07:17.343Z,7.27
2019-03-18T18:09:48.515Z,7.22
2019-03-18T18:12:19.316Z,7.15
2019-03-18T18:14:50.357Z,7.06
2019-03-18T18:17:21.354Z,6.89
2019-03-18T18:19:52.400Z,6.90
2019-03-18T18:22:23.593Z,6.76
2019-03-18T18:24:54.994Z,6.63
2019-03-18T18:27:26.236Z,6.60
2019-03-18T18:29:57.594Z,6.52
2019-03-18T18:32:28.432Z,6.47
2019-03-18T18:34:59.190Z,6.44
2019-03-18T18:37:30.005Z,6.41
2019-03-18T18:40:01.278Z,6.42
2019-03-18T18:42:32.439Z,6.42
2019-03-18T18:45:03.797Z,6.30
2019-03-18T18:47:35.835Z,6.30
2019-03-18T18:50:19.151Z,6.25
2019-03-18T18:52:56.476Z,6.28
2019-03-18T18:55:30.602Z,6.25
2019-03-18T18:58:02.578Z,6.23
2019-03-18T19:00:33.593Z,6.22
2019-03-18T19:03:06.270Z,6.21
2019-03-18T19:05:36.416Z,6.23
2019-03-18T19:08:07.433Z,6.26
2019-03-18T19:10:38.523Z,6.25
2019-03-18T19:13:12.284Z,6.24
2019-03-18T19:15:45.684Z,6.23
2019-03-18T19:18:17.811Z,6.22
2019-03-18T19:20:49.923Z,6.23
2019-03-18T19:23:22.125Z,6.20
2019-03-18T19:25:54.612Z,6.21
2019-03-18T19:28:26.394Z,6.18
2019-03-18T19:30:56.949Z,6.16
2019-03-18T19:33:28.127Z,6.16
2019-03-18T19:35:59.924Z,6.18
2019-03-18T19:38:30.660Z,6.17
2019-03-18T19:41:03.702Z,6.20
2019-03-18T19:43:35.939Z,6.17
2019-03-18T19:46:06.980Z,6.20
2019-03-18T19:48:38.105Z,6.20
2019-03-18T19:51:08.939Z,6.19
2019-03-18T19:53:48.665Z,6.13
2019-03-18T19:56:12.889Z,6.15
2019-03-18T19:58:44.184Z,6.16
2019-03-18T20:01:16.302Z,6.12
2019-03-18T20:03:47.085Z,6.07
2019-03-18T20:06:20.733Z,6.09
2019-03-18T20:08:52.082Z,6.07
2019-03-18T20:11:24.459Z,6.03
2019-03-18T20:13:56.161Z,6.04
2019-03-18T20:16:28.700Z,6.11
2019-03-18T20:19:00.599Z,6.07
2019-03-18T20:21:32.685Z,6.07
2019-03-18T20:24:05.188Z,6.05
2019-03-18T20:26:36.478Z,6.05
2019-03-18T20:29:07.968Z,6.05
2019-03-18T20:31:38.940Z,6.08
2019-03-18T20:34:09.507Z,6.07
2019-03-18T20:36:40.065Z,6.07
2019-03-18T20:39:11.905Z,6.06
2019-03-18T20:41:42.707Z,6.06
2019-03-18T20:44:14.048Z,6.03
2019-03-18T20:46:45.134Z,6.01
2019-03-18T20:49:17.106Z,6.01
2019-03-18T20:51:48.537Z,6.03
2019-03-18T20:54:19.570Z,6.06
2019-03-18T20:56:50.520Z,6.03
2019-03-18T20:59:22.053Z,6.07
2019-03-18T21:01:52.754Z,6.06
2019-03-18T21:04:23.651Z,5.99
2019-03-18T21:06:54.770Z,5.98
2019-03-18T21:09:26.556Z,5.97
2019-03-18T21:11:57.500Z,5.96
2019-03-18T21:14:28.532Z,5.93
2019-03-18T21:16:59.612Z,5.93
2019-03-18T21:19:31.572Z,5.88
2019-03-18T21:22:02.512Z,5.86
2019-03-18T21:24:33.335Z,5.85
2019-03-18T21:27:04.373Z,5.82
2019-03-18T21:29:35.475Z,5.77
2019-03-18T21:32:06.171Z,5.79
2019-03-18T21:34:37.291Z,5.75
2019-03-18T21:37:08.091Z,5.74
2019-03-18T21:39:39.410Z,5.70
2019-03-18T21:42:10.569Z,5.63
2019-03-18T21:44:41.610Z,5.63
2019-03-18T21:47:12.850Z,5.55
2019-03-18T21:49:44.089Z,5.48
2019-03-18T21:52:16.753Z,5.48
2019-03-18T21:54:48.290Z,5.43
2019-03-18T21:57:19.768Z,5.42
2019-03-18T21:59:51.329Z,5.37
2019-03-18T22:02:22.649Z,5.35
2019-03-18T22:04:54.094Z,5.32
2019-03-18T22:07:25.213Z,5.34
2019-03-18T22:09:56.732Z,5.27
2019-03-18T22:12:27.529Z,5.25
2019-03-18T22:14:58.694Z,5.22
2019-03-18T22:17:29.884Z,5.15
2019-03-18T22:20:01.217Z,5.12
2019-03-18T22:22:32.262Z,5.11
2019-03-18T22:25:03.821Z,5.10
2019-03-18T22:27:34.981Z,5.06
2019-03-18T22:30:06.477Z,5.08
2019-03-18T22:32:37.342Z,5.06
2019-03-18T22:35:09.470Z,5.04
2019-03-18T22:37:40.781Z,5.09
2019-03-18T22:40:13.784Z,5.11
2019-03-18T22:42:45.696Z,5.10
2019-03-18T22:45:18.076Z,5.16
2019-03-18T22:47:48.608Z,5.17
2019-03-18T22:50:18.569Z,5.18
2019-03-18T22:52:49.337Z,5.21
2019-03-18T22:55:19.555Z,5.16
2019-03-18T22:57:49.858Z,5.16
2019-03-18T23:00:22.890Z,5.18
2019-03-18T23:02:54.701Z,5.18
2019-03-18T23:05:24.732Z,5.21
2019-03-18T23:07:54.885Z,5.15
2019-03-18T23:10:25.161Z,5.06
2019-03-18T23:12:55.758Z,5.05
2019-03-18T23:15:26.658Z,5.04
2019-03-18T23:17:56.622Z,5.03
2019-03-18T23:20:34.330Z,4.96
2019-03-18T23:23:06.742Z,4.89
2019-03-18T23:25:37.565Z,4.89
2019-03-18T23:28:08.765Z,4.88
2019-03-18T23:30:39.415Z,4.81
2019-03-18T23:33:10.232Z,4.77
2019-03-18T23:35:40.864Z,4.78
2019-03-18T23:38:11.888Z,4.78
2019-03-18T23:40:42.960Z,4.74
2019-03-18T23:43:14.791Z,4.74
2019-03-18T23:45:45.375Z,4.66
2019-03-18T23:48:16.120Z,4.63
2019-03-18T23:50:46.900Z,4.60
2019-03-18T23:53:17.869Z,4.59
2019-03-18T23:55:48.995Z,4.58
2019-03-18T23:58:19.966Z,4.53
